createdAt,value
2023-02-11T00:27:14.341Z,79.39
2023-02-11T00:55:42.115Z,82.32
2023-02-11T01:23:57.711Z,85.24
2023-02-11T01:52:10.626Z,85.46
2023-02-11T02:20:33.064Z,84.19
2023-02-11T02:48:55.793Z,83.43
2023-02-11T03:17:19.233Z,83.63
2023-02-11T03:45:35.916Z,84.1
2023-02-11T04:13:51.318Z,85.91
2023-02-11T04:42:14.272Z,85.8
2023-02-11T05:10:35.589Z,85.05
2023-02-11T05:38:52.821Z,85.39
2023-02-11T06:07:10.106Z,85.17
2023-02-11T06:35:36.052Z,83.45
2023-02-11T07:04:02.383Z,83.12
2023-02-11T07:32:21.948Z,83.13
2023-02-11T08:00:42.562Z,83.34
2023-02-11T08:29:05.472Z,81.78
2023-02-11T08:58:06.809Z,63.02
2023-02-11T09:26:10.061Z,59.78
2023-02-11T09:54:16.752Z,59.1
2023-02-11T10:22:32.429Z,57.85
2023-02-11T10:51:27.694Z,52.54
2023-02-11T11:19:54.944Z,53.13
2023-02-11T11:48:14.942Z,50.09
2023-02-11T12:16:29.379Z,50.49
2023-02-11T12:44:38.095Z,52.99
2023-02-11T13:12:59.946Z,57.26
2023-02-11T13:41:46.808Z,59.93
2023-02-11T14:10:42.059Z,63.18
2023-02-11T14:39:38.972Z,64.21
2023-02-11T15:08:37.784Z,65.24
2023-02-11T15:37:36.050Z,66.22
2023-02-11T16:06:26.013Z,68.99
2023-02-11T16:35:14.060Z,72.07
2023-02-11T17:04:02.479Z,75.51
2023-02-11T17:32:21.519Z,77.13
2023-02-11T18:00:38.908Z,77.97
2023-02-11T18:28:52.685Z,80.24
2023-02-11T18:57:03.102Z,86.43
2023-02-11T19:25:27.611Z,87.87
2023-02-11T19:54:19.578Z,89.19
2023-02-11T20:23:07.983Z,90.05
2023-02-11T20:52:04.910Z,90.56
2023-02-11T21:20:58.611Z,90.03
2023-02-11T21:50:00.670Z,88.98
2023-02-11T22:18:54.510Z,89.18
2023-02-11T22:47:42.233Z,89.28
2023-02-11T23:16:26.247Z,89.81
2023-02-11T23:45:18.246Z,88.74
